createdAt,value
2023-01-20T00:01:12.083Z,30.77
2023-01-20T00:03:40.568Z,29.63
2023-01-20T00:06:10.039Z,30.90
2023-01-20T00:08:37.735Z,33.33
2023-01-20T00:11:06.923Z,28.77
2023-01-20T00:13:34.782Z,32.57
2023-01-20T00:16:03.681Z,32.43
2023-01-20T00:18:31.607Z,36.30
2023-01-20T00:21:04.315Z,31.43
2023-01-20T00:23:33.763Z,32.33
2023-01-20T00:26:05.657Z,31.73
2023-01-20T00:28:33.561Z,31.87
2023-01-20T00:31:11.714Z,27.60
2023-01-20T00:33:39.621Z,27.17
2023-01-20T00:36:08.576Z,29.30
2023-01-20T00:38:37.672Z,29.50
2023-01-20T00:41:06.001Z,27.77
2023-01-20T00:43:33.683Z,29.13
2023-01-20T00:46:01.568Z,30.60
2023-01-20T00:48:29.545Z,28.83
2023-01-20T00:50:57.279Z,31.57
2023-01-20T00:53:24.996Z,29.20
2023-01-20T00:55:54.232Z,31.27
2023-01-20T00:58:22.332Z,30.87
2023-01-20T01:00:51.194Z,30.37
2023-01-20T01:03:19.706Z,31.30
2023-01-20T01:05:47.669Z,28.67
2023-01-20T01:08:15.777Z,27.50
2023-01-20T01:10:43.475Z,34.47
2023-01-20T01:13:12.721Z,29.97
2023-01-20T01:15:40.372Z,30.07
2023-01-20T01:18:08.111Z,26.33
2023-01-20T01:20:35.831Z,31.67
2023-01-20T01:23:03.497Z,29.00
2023-01-20T01:25:31.155Z,29.90
2023-01-20T01:27:58.788Z,28.97
2023-01-20T01:30:28.006Z,31.70
2023-01-20T01:32:55.636Z,27.83
2023-01-20T01:35:23.358Z,30.07
2023-01-20T01:37:51.223Z,27.10
2023-01-20T01:40:19.422Z,28.20
2023-01-20T01:42:47.108Z,32.27
2023-01-20T01:45:28.459Z,28.70
2023-01-20T01:48:01.538Z,31.97
2023-01-20T01:50:35.930Z,30.50
2023-01-20T01:53:03.976Z,32.53
2023-01-20T01:55:35.516Z,32.47
2023-01-20T01:58:05.988Z,34.33
2023-01-20T02:00:35.149Z,27.83
2023-01-20T02:03:03.049Z,28.20
2023-01-20T02:05:31.974Z,28.67
2023-01-20T02:08:00.134Z,29.73
2023-01-20T02:10:28.098Z,30.77
2023-01-20T02:12:56.121Z,29.13
2023-01-20T02:15:27.272Z,33.43
2023-01-20T02:18:08.631Z,34.33
2023-01-20T02:21:15.803Z,31.80
2023-01-20T02:24:10.463Z,34.80
2023-01-20T02:26:52.382Z,33.17
2023-01-20T02:29:40.901Z,32.17
2023-01-20T02:32:16.376Z,30.23
2023-01-20T02:34:50.069Z,33.67
2023-01-20T02:37:21.747Z,32.97
2023-01-20T02:39:59.887Z,29.93
2023-01-20T02:42:37.939Z,34.00
2023-01-20T02:45:11.524Z,32.47
2023-01-20T02:47:51.884Z,28.13
2023-01-20T02:50:25.756Z,34.03
2023-01-20T02:52:57.221Z,32.53
2023-01-20T02:55:29.050Z,35.20
2023-01-20T02:58:04.006Z,36.13
2023-01-20T03:00:37.982Z,34.57
2023-01-20T03:03:12.974Z,33.70
2023-01-20T03:05:45.534Z,33.43
2023-01-20T03:08:15.387Z,35.17
2023-01-20T03:10:44.043Z,36.00
2023-01-20T03:13:16.455Z,35.73
2023-01-20T03:16:02.194Z,33.53
2023-01-20T03:18:33.753Z,32.57
2023-01-20T03:21:03.787Z,34.77
2023-01-20T03:23:35.164Z,35.37
2023-01-20T03:26:05.693Z,31.47
2023-01-20T03:28:33.467Z,31.83
2023-01-20T03:31:06.193Z,36.10
2023-01-20T03:33:35.631Z,34.47
2023-01-20T03:36:03.631Z,33.20
2023-01-20T03:38:31.357Z,34.00
2023-01-20T03:41:03.087Z,36.60
2023-01-20T03:43:38.115Z,36.27
2023-01-20T03:46:12.630Z,34.87
2023-01-20T03:48:47.339Z,34.73
2023-01-20T03:51:22.552Z,33.80
2023-01-20T03:53:55.941Z,29.83
2023-01-20T03:56:29.320Z,32.50
2023-01-20T03:59:00.775Z,31.93
2023-01-20T04:01:34.535Z,30.80
2023-01-20T04:04:04.969Z,30.10
2023-01-20T04:06:35.070Z,30.07
2023-01-20T04:09:06.865Z,32.17
2023-01-20T04:11:34.743Z,29.47
2023-01-20T04:14:02.783Z,30.83
2023-01-20T04:16:30.428Z,33.13
2023-01-20T04:18:58.137Z,38.40
2023-01-20T04:21:32.316Z,28.73
2023-01-20T04:24:04.600Z,25.57
2023-01-20T04:26:32.281Z,29.40
2023-01-20T04:28:59.945Z,31.50
2023-01-20T04:31:31.130Z,29.40
2023-01-20T04:33:59.245Z,30.47
2023-01-20T04:36:28.286Z,28.30
2023-01-20T04:38:56.120Z,31.27
2023-01-20T04:41:23.876Z,31.20
2023-01-20T04:43:51.585Z,34.03
2023-01-20T04:46:19.376Z,30.90
2023-01-20T04:48:47.100Z,29.20
2023-01-20T04:51:15.145Z,27.00
2023-01-20T04:53:44.150Z,30.33
2023-01-20T04:56:13.160Z,30.20
2023-01-20T04:58:41.471Z,27.13
2023-01-20T05:01:10.081Z,28.93
2023-01-20T05:03:37.843Z,32.03
2023-01-20T05:06:08.033Z,28.20
2023-01-20T05:08:35.795Z,31.57
2023-01-20T05:11:04.989Z,29.97
2023-01-20T05:13:33.678Z,25.50
2023-01-20T05:16:03.104Z,26.47
2023-01-20T05:18:31.065Z,26.00
2023-01-20T05:20:58.743Z,33.07
2023-01-20T05:23:26.614Z,25.63
2023-01-20T05:25:54.740Z,29.77
2023-01-20T05:28:23.908Z,25.53
2023-01-20T05:30:52.322Z,28.30
2023-01-20T05:33:20.078Z,26.83
2023-01-20T05:35:47.840Z,29.00
2023-01-20T05:38:15.516Z,30.13
2023-01-20T05:40:43.199Z,27.23
2023-01-20T05:43:12.941Z,29.83
2023-01-20T05:45:43.012Z,27.70
2023-01-20T05:48:10.732Z,25.43
2023-01-20T05:50:38.489Z,28.83
2023-01-20T05:53:06.131Z,28.03
2023-01-20T05:55:33.805Z,29.33
2023-01-20T05:58:02.879Z,32.43
2023-01-20T06:00:30.825Z,29.60
2023-01-20T06:03:00.206Z,27.50
2023-01-20T06:05:28.160Z,34.47
2023-01-20T06:07:56.649Z,24.50
2023-01-20T06:10:25.178Z,28.00
2023-01-20T06:12:54.102Z,26.07
2023-01-20T06:15:24.058Z,28.10
2023-01-20T06:17:52.241Z,25.00
2023-01-20T06:20:21.446Z,29.80
2023-01-20T06:22:49.305Z,28.07
2023-01-20T06:25:17.376Z,27.00
2023-01-20T06:27:45.373Z,26.07
2023-01-20T06:30:13.344Z,27.57
2023-01-20T06:44:11.472Z,32.33
2023-01-20T06:53:32.967Z,33.70
2023-01-20T06:56:03.896Z,34.80
2023-01-20T06:58:35.468Z,31.67
2023-01-20T07:01:17.390Z,32.80
2023-01-20T07:03:47.473Z,32.73
2023-01-20T07:06:18.427Z,29.83
2023-01-20T07:08:47.296Z,33.27
2023-01-20T07:11:24.542Z,34.77
2023-01-20T07:14:11.052Z,31.30
2023-01-20T07:16:48.437Z,34.13
2023-01-20T07:19:16.602Z,37.03
2023-01-20T07:21:44.616Z,33.07
2023-01-20T07:24:12.770Z,29.73
2023-01-20T07:26:42.375Z,37.93
2023-01-20T07:29:11.695Z,36.17
2023-01-20T07:31:40.449Z,38.13
2023-01-20T07:34:08.459Z,38.00
2023-01-20T07:36:36.861Z,35.37
2023-01-20T07:39:05.126Z,35.87
2023-01-20T07:41:33.560Z,38.70
2023-01-20T07:44:03.244Z,36.27
2023-01-20T07:46:31.425Z,36.13
2023-01-20T07:48:59.757Z,34.27
2023-01-20T07:51:28.135Z,36.17
2023-01-20T07:54:03.601Z,29.27
2023-01-20T07:56:32.531Z,31.50
2023-01-20T07:59:00.606Z,41.60
2023-01-20T08:01:32.327Z,52.37
2023-01-20T08:04:01.668Z,36.07
2023-01-20T08:06:31.039Z,35.20
2023-01-20T08:09:01.596Z,31.33
2023-01-20T08:11:32.163Z,44.27
2023-01-20T08:14:00.360Z,36.27
2023-01-20T08:16:37.320Z,34.87
2023-01-20T08:19:05.825Z,35.30
2023-01-20T08:21:35.948Z,31.43
2023-01-20T08:24:06.902Z,36.23
2023-01-20T08:26:35.445Z,34.90
2023-01-20T08:29:04.281Z,31.70
2023-01-20T08:31:32.693Z,36.30
2023-01-20T08:34:11.984Z,31.40
2023-01-20T08:36:50.280Z,33.37
2023-01-20T08:39:19.404Z,33.10
2023-01-20T08:41:48.772Z,32.57
2023-01-20T08:44:18.230Z,31.53
2023-01-20T08:46:46.935Z,33.37
2023-01-20T08:49:19.296Z,34.77
2023-01-20T08:51:47.432Z,32.63
2023-01-20T08:54:16.294Z,31.20
2023-01-20T08:56:45.505Z,29.00
2023-01-20T08:59:13.951Z,36.67
2023-01-20T09:01:43.967Z,26.87
2023-01-20T09:04:12.488Z,38.03
2023-01-20T09:06:48.794Z,34.73
2023-01-20T09:09:18.668Z,31.63
2023-01-20T09:11:51.359Z,28.37
2023-01-20T09:14:20.288Z,33.50
2023-01-20T09:16:48.686Z,31.77
2023-01-20T09:19:17.216Z,34.80
2023-01-20T09:21:47.040Z,30.53
2023-01-20T09:24:15.317Z,33.03
2023-01-20T09:26:44.997Z,31.47
2023-01-20T09:29:15.162Z,33.57
2023-01-20T09:31:45.813Z,30.77
2023-01-20T09:34:19.550Z,37.00
2023-01-20T09:36:55.684Z,31.40
2023-01-20T09:39:44.968Z,34.63
2023-01-20T09:42:41.155Z,32.27
2023-01-20T09:45:26.134Z,30.47
2023-01-20T09:48:14.218Z,29.00
2023-01-20T09:51:05.837Z,29.90
2023-01-20T09:53:48.799Z,31.50
2023-01-20T09:56:39.613Z,30.67
2023-01-20T09:59:38.734Z,28.77
2023-01-20T10:05:23.700Z,28.30
2023-01-20T10:08:03.655Z,29.20
2023-01-20T10:11:04.552Z,28.10
2023-01-20T10:13:47.366Z,24.63
2023-01-20T10:17:04.726Z,25.70
2023-01-20T10:19:44.685Z,28.60
2023-01-20T10:22:19.566Z,27.47
2023-01-20T10:25:00.599Z,27.77
2023-01-20T10:31:20.259Z,31.07
2023-01-20T10:34:05.601Z,30.10
2023-01-20T10:48:43.480Z,29.97
2023-01-20T10:51:16.893Z,30.00
2023-01-20T10:53:54.346Z,25.97
2023-01-20T10:56:49.865Z,25.90
2023-01-20T10:59:22.843Z,25.70
2023-01-20T11:02:06.162Z,26.17
2023-01-20T11:04:40.073Z,26.70
2023-01-20T11:07:16.584Z,25.50
2023-01-20T11:09:44.993Z,24.30
2023-01-20T11:12:17.471Z,21.50
2023-01-20T11:14:46.535Z,22.43
2023-01-20T11:17:16.879Z,26.07
2023-01-20T11:19:52.586Z,24.43
2023-01-20T11:22:29.257Z,21.53
2023-01-20T11:25:00.004Z,25.10
2023-01-20T11:27:31.252Z,24.03
2023-01-20T11:30:02.243Z,24.00
2023-01-20T11:32:33.308Z,23.90
2023-01-20T11:35:19.451Z,22.07
2023-01-20T11:37:47.498Z,23.13
2023-01-20T11:40:29.270Z,23.43
2023-01-20T11:42:57.197Z,21.53
2023-01-20T11:45:32.672Z,19.00
2023-01-20T11:48:03.621Z,20.73
2023-01-20T11:50:36.757Z,23.17
2023-01-20T11:53:15.025Z,22.50
2023-01-20T11:55:52.091Z,20.17
2023-01-20T11:58:22.724Z,19.33
2023-01-20T12:00:55.652Z,21.90
2023-01-20T12:04:21.236Z,20.40
2023-01-20T12:06:59.942Z,20.27
2023-01-20T12:09:33.625Z,20.87
2023-01-20T12:12:04.948Z,20.57
2023-01-20T12:14:36.113Z,20.60
2023-01-20T12:17:26.271Z,21.43
2023-01-20T12:20:20.227Z,26.17
2023-01-20T12:26:05.255Z,21.23
2023-01-20T12:28:39.988Z,24.90
2023-01-20T12:31:14.802Z,21.63
2023-01-20T12:36:50.528Z,24.47
2023-01-20T12:42:41.595Z,27.67
2023-01-20T12:45:21.421Z,21.40
2023-01-20T12:48:00.950Z,24.67
2023-01-20T12:50:38.961Z,20.50
2023-01-20T12:53:25.064Z,23.73
2023-01-20T12:56:02.190Z,17.57
2023-01-20T12:58:44.401Z,19.03
2023-01-20T13:01:44.188Z,19.00
2023-01-20T13:04:45.558Z,16.13
2023-01-20T13:07:24.986Z,18.47
2023-01-20T13:10:17.644Z,18.33
2023-01-20T13:12:54.870Z,17.07
2023-01-20T13:15:29.150Z,19.17
2023-01-20T13:18:24.488Z,16.13
2023-01-20T13:20:54.133Z,16.47
2023-01-20T13:23:25.321Z,15.60
2023-01-20T13:25:54.287Z,15.80
2023-01-20T13:28:26.659Z,16.87
2023-01-20T13:30:55.869Z,18.23
2023-01-20T13:33:35.888Z,16.87
2023-01-20T13:36:16.112Z,20.37
2023-01-20T13:38:44.553Z,17.47
2023-01-20T13:41:12.699Z,17.70
2023-01-20T13:43:59.808Z,18.77
2023-01-20T13:46:47.614Z,18.07
2023-01-20T13:49:23.996Z,18.97
2023-01-20T13:51:52.195Z,20.77
2023-01-20T13:54:45.924Z,17.90
2023-01-20T13:57:47.020Z,20.63
2023-01-20T14:00:21.138Z,17.27
2023-01-20T14:02:50.095Z,18.27
2023-01-20T14:05:35.823Z,19.77
2023-01-20T14:08:03.518Z,17.30
2023-01-20T14:10:31.130Z,16.83
2023-01-20T14:12:58.850Z,20.97
2023-01-20T14:15:39.925Z,15.80
2023-01-20T14:18:15.843Z,12.77
2023-01-20T14:20:45.373Z,12.50
2023-01-20T14:23:28.104Z,11.53
2023-01-20T14:26:00.373Z,12.20
2023-01-20T14:28:28.093Z,11.33
2023-01-20T14:31:31.002Z,11.70
2023-01-20T14:34:02.161Z,11.13
2023-01-20T14:36:33.138Z,13.17
2023-01-20T14:39:04.288Z,11.23
2023-01-20T14:41:35.065Z,11.40
2023-01-20T14:44:03.396Z,13.90
2023-01-20T14:46:34.225Z,15.40
2023-01-20T14:49:04.035Z,12.57
2023-01-20T14:51:31.854Z,10.50
2023-01-20T14:54:38.344Z,12.63
2023-01-20T14:57:22.533Z,11.87
2023-01-20T15:00:12.087Z,11.63
2023-01-20T15:02:45.458Z,12.43
2023-01-20T15:05:35.430Z,12.97
2023-01-20T15:08:25.969Z,12.83
2023-01-20T15:11:31.243Z,20.60
2023-01-20T15:14:12.771Z,18.60
2023-01-20T15:16:51.171Z,13.70
2023-01-20T15:19:38.424Z,10.97
2023-01-20T15:22:18.459Z,14.07
2023-01-20T15:24:47.477Z,15.57
2023-01-20T15:27:23.835Z,13.10
2023-01-20T15:30:15.864Z,13.37
2023-01-20T15:32:43.777Z,14.63
2023-01-20T15:35:17.513Z,13.33
2023-01-20T15:37:45.587Z,13.67
2023-01-20T15:40:18.885Z,15.90
2023-01-20T15:42:46.798Z,17.07
2023-01-20T15:45:15.826Z,19.50
2023-01-20T15:47:44.672Z,15.83
2023-01-20T15:50:19.553Z,18.07
2023-01-20T15:52:47.399Z,15.63
2023-01-20T15:55:16.295Z,17.23
2023-01-20T15:57:45.099Z,23.57
2023-01-20T16:00:18.479Z,23.37
2023-01-20T16:02:46.563Z,27.37
2023-01-20T16:05:17.304Z,22.80
2023-01-20T16:07:49.477Z,25.03
2023-01-20T16:10:18.622Z,23.07
2023-01-20T16:12:47.087Z,24.37
2023-01-20T16:15:16.422Z,34.93
2023-01-20T16:17:44.516Z,37.37
2023-01-20T16:20:23.100Z,38.73
2023-01-20T16:22:54.875Z,39.00
2023-01-20T16:25:22.613Z,35.50
2023-01-20T16:27:50.519Z,29.63
2023-01-20T16:30:20.254Z,24.10
2023-01-20T16:32:48.293Z,26.97
2023-01-20T16:35:17.887Z,23.73
2023-01-20T16:37:47.446Z,17.63
2023-01-20T16:40:19.814Z,17.97
2023-01-20T16:42:47.861Z,17.13
2023-01-20T16:45:23.964Z,15.57
2023-01-20T16:47:52.267Z,13.50
2023-01-20T16:50:20.287Z,14.50
2023-01-20T16:52:48.448Z,15.17
2023-01-20T16:55:17.545Z,16.90
2023-01-20T16:57:45.271Z,19.13
2023-01-20T17:00:15.035Z,13.50
2023-01-20T17:02:45.529Z,14.10
2023-01-20T17:05:13.184Z,15.80
2023-01-20T17:07:40.862Z,16.70
2023-01-20T17:10:09.522Z,15.17
2023-01-20T17:12:38.539Z,20.13
2023-01-20T17:15:07.846Z,17.53
2023-01-20T17:17:38.562Z,18.87
2023-01-20T17:20:10.108Z,15.67
2023-01-20T17:22:38.984Z,17.33
2023-01-20T17:25:08.918Z,16.87
2023-01-20T17:27:39.115Z,16.60
2023-01-20T17:30:08.633Z,16.23
2023-01-20T17:32:37.117Z,22.37
2023-01-20T17:35:05.675Z,19.53
2023-01-20T17:37:33.395Z,19.30
2023-01-20T17:40:01.109Z,20.40
2023-01-20T17:42:28.984Z,20.50
2023-01-20T17:45:01.919Z,19.73
2023-01-20T17:47:31.463Z,20.50
2023-01-20T17:49:59.366Z,18.00
2023-01-20T17:52:28.385Z,27.27
2023-01-20T17:54:56.247Z,34.83
2023-01-20T17:57:25.583Z,21.83
2023-01-20T17:59:54.995Z,27.00
2023-01-20T18:02:24.039Z,27.03
2023-01-20T18:04:51.757Z,28.10
2023-01-20T18:07:19.462Z,24.07
2023-01-20T18:09:47.147Z,22.40
2023-01-20T18:12:14.958Z,19.97
2023-01-20T18:14:42.649Z,17.17
2023-01-20T18:17:10.370Z,17.90
2023-01-20T18:19:39.641Z,19.93
2023-01-20T18:22:10.187Z,19.63
2023-01-20T18:24:38.480Z,18.60
2023-01-20T18:27:06.171Z,21.23
2023-01-20T18:29:35.449Z,20.87
2023-01-20T18:32:03.393Z,16.93
2023-01-20T18:34:31.083Z,18.07
2023-01-20T18:37:01.286Z,18.20
2023-01-20T18:39:29.537Z,18.10
2023-01-20T18:41:57.256Z,18.70
2023-01-20T18:44:25.108Z,18.93
2023-01-20T18:46:53.627Z,18.77
2023-01-20T18:49:21.534Z,17.70
2023-01-20T18:51:49.455Z,19.67
2023-01-20T18:54:20.808Z,16.83
2023-01-20T18:56:48.948Z,20.10
2023-01-20T18:59:17.198Z,21.83
2023-01-20T19:01:45.225Z,19.23
2023-01-20T19:04:14.019Z,22.03
2023-01-20T19:06:43.199Z,21.20
2023-01-20T19:09:11.721Z,25.53
2023-01-20T19:11:42.120Z,19.73
2023-01-20T19:14:14.122Z,23.83
2023-01-20T19:16:45.258Z,26.83
2023-01-20T19:19:23.395Z,26.33
2023-01-20T19:21:52.558Z,24.03
2023-01-20T19:24:21.918Z,28.13
2023-01-20T19:26:51.177Z,24.03
2023-01-20T19:29:19.709Z,28.57
2023-01-20T19:31:48.987Z,25.53
2023-01-20T19:34:16.732Z,22.77
2023-01-20T19:36:44.525Z,22.33
2023-01-20T19:39:12.327Z,22.53
2023-01-20T19:41:39.969Z,24.93
2023-01-20T19:44:08.978Z,23.07
2023-01-20T19:46:38.754Z,24.07
2023-01-20T19:49:06.824Z,23.97
2023-01-20T19:51:34.649Z,22.73
2023-01-20T19:54:04.707Z,23.50
2023-01-20T19:56:36.854Z,23.93
2023-01-20T19:59:06.195Z,24.27
2023-01-20T20:01:37.155Z,24.40
2023-01-20T20:04:08.563Z,23.87
2023-01-20T20:06:38.115Z,25.87
2023-01-20T20:09:08.330Z,21.67
2023-01-20T20:11:36.498Z,25.37
2023-01-20T20:14:06.940Z,25.37
2023-01-20T20:16:37.444Z,22.10
2023-01-20T20:19:06.054Z,23.63
2023-01-20T20:21:35.453Z,23.27
2023-01-20T20:24:05.138Z,21.30
2023-01-20T20:26:36.142Z,23.90
2023-01-20T20:29:05.227Z,23.97
2023-01-20T20:31:34.317Z,21.27
2023-01-20T20:34:07.141Z,23.50
2023-01-20T20:36:35.438Z,22.53
2023-01-20T20:39:05.185Z,25.77
2023-01-20T20:41:38.454Z,22.63
2023-01-20T20:44:06.463Z,22.77
2023-01-20T20:46:34.297Z,20.10
2023-01-20T20:49:03.441Z,21.63
2023-01-20T20:51:32.587Z,23.20
2023-01-20T20:54:01.964Z,26.80
2023-01-20T20:56:31.923Z,28.37
2023-01-20T20:59:03.424Z,32.43
2023-01-20T21:01:34.093Z,27.03
2023-01-20T21:04:04.484Z,27.03
2023-01-20T21:06:33.381Z,27.57
2023-01-20T21:09:01.736Z,24.90
2023-01-20T21:11:30.469Z,27.17
2023-01-20T21:13:59.272Z,23.23
2023-01-20T21:16:28.604Z,28.00
2023-01-20T21:18:59.404Z,25.80
2023-01-20T21:21:29.831Z,27.03
2023-01-20T21:24:04.289Z,27.83
2023-01-20T21:26:32.875Z,25.03
2023-01-20T21:29:04.867Z,26.07
2023-01-20T21:31:34.654Z,26.43
2023-01-20T21:34:03.772Z,27.13
2023-01-20T21:36:34.761Z,26.90
2023-01-20T21:39:03.008Z,24.60
2023-01-20T21:41:32.258Z,23.87
2023-01-20T21:44:17.819Z,23.43
2023-01-20T21:46:56.100Z,25.37
2023-01-20T21:49:42.031Z,26.00
2023-01-20T21:52:32.936Z,26.43
2023-01-20T21:55:07.636Z,28.43
2023-01-20T21:57:38.091Z,27.47
2023-01-20T22:00:08.735Z,26.80
2023-01-20T22:02:38.312Z,25.97
2023-01-20T22:05:12.531Z,28.37
2023-01-20T22:07:42.283Z,26.73
2023-01-20T22:10:12.913Z,27.80
2023-01-20T22:12:40.940Z,29.57
2023-01-20T22:15:10.153Z,27.33
2023-01-20T22:17:38.805Z,29.13
2023-01-20T22:20:07.881Z,25.70
2023-01-20T22:22:35.841Z,25.83
2023-01-20T22:25:05.575Z,24.70
2023-01-20T22:27:36.765Z,30.30
2023-01-20T22:30:05.443Z,27.47
2023-01-20T22:32:33.437Z,24.53
2023-01-20T22:35:01.378Z,28.27
2023-01-20T22:37:32.155Z,24.10
2023-01-20T22:40:02.076Z,24.43
2023-01-20T22:42:31.462Z,25.23
2023-01-20T22:44:59.402Z,25.30
2023-01-20T22:47:27.586Z,25.30
2023-01-20T22:49:57.002Z,27.13
2023-01-20T22:52:24.975Z,27.43
2023-01-20T22:54:52.915Z,41.47
2023-01-20T22:57:21.125Z,52.83
2023-01-20T22:59:50.421Z,47.20
2023-01-20T23:02:18.637Z,44.80
2023-01-20T23:04:46.405Z,45.00
2023-01-20T23:07:15.877Z,36.50
2023-01-20T23:09:43.697Z,37.47
2023-01-20T23:12:11.558Z,33.13
2023-01-20T23:14:57.431Z,34.53
2023-01-20T23:17:27.011Z,35.60
2023-01-20T23:19:55.570Z,32.80
2023-01-20T23:22:24.439Z,35.73
2023-01-20T23:24:52.318Z,34.43
2023-01-20T23:27:20.186Z,34.47
2023-01-20T23:29:49.346Z,35.70
2023-01-20T23:32:17.172Z,39.60
2023-01-20T23:34:46.435Z,34.63
2023-01-20T23:37:14.307Z,30.57
2023-01-20T23:39:42.114Z,36.40
2023-01-20T23:42:09.948Z,35.07
2023-01-20T23:44:38.028Z,37.43
2023-01-20T23:47:07.526Z,36.80
2023-01-20T23:49:35.355Z,33.60
2023-01-20T23:52:05.120Z,36.57
2023-01-20T23:54:33.125Z,31.60
2023-01-20T23:57:00.999Z,34.70
2023-01-20T23:59:29.022Z,31.10
